Time;durP1;ratioP1;P1;durP2;ratioP2;P2;SDS_P1;SDS_P2;PMS_P1;PMS_P2;Temp;Humidity;BMP_temperature;BMP_pressure;BME280_temperature;BME280_humidity;BME280_pressure;Samples;Min_cycle;Max_cycle;Signal;HPM_P1;HPM_P2
2023/06/02 00:01:13;;;;;;;;;7.67;7.00;;;;;18.78;49.75;101536.66;5014908;28;45709;-49
2023/06/02 00:03:40;;;;;;;;;9.00;8.00;;;;;18.68;49.76;101531.47;5014715;28;45441;-46
2023/06/02 00:06:09;;;;;;;;;13.00;10.00;;;;;18.66;50.10;101528.09;5014922;28;45373;-49
2023/06/02 00:08:38;;;;;;;;;9.00;7.00;;;;;18.64;50.25;101524.78;5016387;28;45494;-48
2023/06/02 00:11:04;;;;;;;;;9.33;6.67;;;;;18.59;49.95;101531.72;5018143;28;45685;-46
2023/06/02 00:13:29;;;;;;;;;7.00;7.00;;;;;18.52;50.31;101526.22;5018242;28;45391;-48
2023/06/02 00:15:55;;;;;;;;;7.67;7.33;;;;;18.52;50.37;101531.59;5018418;28;45787;-47
2023/06/02 00:18:22;;;;;;;;;10.00;8.33;;;;;18.46;50.41;101524.25;5018616;28;45377;-47
2023/06/02 00:20:48;;;;;;;;;11.00;7.67;;;;;18.42;50.71;101528.31;5000329;28;46364;-46
2023/06/02 00:23:14;;;;;;;;;10.33;9.33;;;;;18.38;50.59;101525.13;5018109;28;45208;-49
2023/06/02 00:25:39;;;;;;;;;13.33;9.00;;;;;18.33;50.42;101527.53;5018338;28;45496;-50
2023/06/02 00:28:05;;;;;;;;;11.00;9.00;;;;;18.26;50.93;101521.19;5018325;28;45371;-47
2023/06/02 00:30:31;;;;;;;;;13.00;10.00;;;;;18.20;51.42;101527.25;5017959;28;46267;-44
2023/06/02 00:32:57;;;;;;;;;10.33;9.33;;;;;18.16;51.05;101529.50;5018161;28;45519;-47
2023/06/02 00:35:22;;;;;;;;;17.33;11.33;;;;;18.08;50.96;101526.84;5018319;28;45533;-47
2023/06/02 00:37:47;;;;;;;;;12.67;10.33;;;;;18.10;50.78;101527.50;5018323;28;45440;-48
2023/06/02 00:40:13;;;;;;;;;14.00;12.33;;;;;18.06;51.24;101544.19;5018057;28;45425;-45
2023/06/02 00:42:39;;;;;;;;;13.00;11.33;;;;;17.88;51.48;101520.22;5018111;28;45390;-46
2023/06/02 00:45:05;;;;;;;;;11.33;9.00;;;;;17.94;51.30;101528.41;5018007;28;45490;-46
2023/06/02 00:47:31;;;;;;;;;8.67;7.67;;;;;17.93;51.44;101531.28;5018231;28;45383;-46
2023/06/02 00:49:57;;;;;;;;;12.00;11.33;;;;;17.77;51.84;101517.91;5017558;28;46293;-47
2023/06/02 00:52:24;;;;;;;;;11.00;11.00;;;;;17.86;51.79;101544.59;5017998;28;45391;-48
2023/06/02 00:54:50;;;;;;;;;15.33;12.67;;;;;17.81;52.07;101538.91;5017830;28;45409;-47
2023/06/02 00:57:16;;;;;;;;;9.67;9.67;;;;;17.73;51.98;101532.69;5017850;28;45336;-48
2023/06/02 00:59:43;;;;;;;;;14.33;12.67;;;;;17.73;52.37;101538.91;5017448;28;47141;-48
2023/06/02 01:02:08;;;;;;;;;17.00;10.33;;;;;17.69;52.40;101533.03;5017563;28;45497;-46
2023/06/02 01:04:35;;;;;;;;;15.67;13.00;;;;;17.66;52.28;101537.94;5017758;28;45347;-47
2023/06/02 01:07:03;;;;;;;;;18.33;14.33;;;;;17.65;52.21;101541.63;5017867;28;45482;-46
2023/06/02 01:09:29;;;;;;;;;18.67;9.67;;;;;17.59;52.38;101532.41;5017270;28;46287;-46
2023/06/02 01:11:56;;;;;;;;;13.33;11.33;;;;;17.56;52.36;101530.06;5017768;28;45347;-45
2023/06/02 01:14:22;;;;;;;;;16.67;12.00;;;;;17.52;52.52;101531.41;5017653;28;45259;-45
2023/06/02 01:16:51;;;;;;;;;13.00;11.33;;;;;17.49;52.10;101528.22;5017780;28;45323;-46
2023/06/02 01:19:20;;;;;;;;;12.67;11.67;;;;;17.46;52.57;101530.25;5016855;28;46512;-45
2023/06/02 01:21:57;;;;;;;;;18.67;14.00;;;;;17.41;52.01;101518.34;5017018;28;45331;-48
2023/06/02 01:24:37;;;;;;;;;18.33;14.33;;;;;17.41;52.28;101521.88;5017308;28;45295;-48
2023/06/02 01:27:14;;;;;;;;;21.33;15.00;;;;;17.39;52.47;101533.81;5017311;28;45366;-45
2023/06/02 01:29:41;;;;;;;;;16.33;13.67;;;;;17.36;52.70;101536.84;5016915;28;45371;-46
2023/06/02 01:32:28;;;;;;;;;20.67;18.00;;;;;17.28;52.51;101531.50;5017126;28;45469;-48
2023/06/02 01:35:05;;;;;;;;;18.00;12.00;;;;;17.13;52.56;101523.28;5017244;28;45321;-48
2023/06/02 01:37:32;;;;;;;;;18.33;15.67;;;;;17.17;53.03;101533.53;5017163;28;45516;-45
2023/06/02 01:40:00;;;;;;;;;16.33;15.00;;;;;17.17;52.58;101538.91;5016863;28;45394;-46
2023/06/02 01:42:26;;;;;;;;;11.67;10.33;;;;;17.10;53.19;101531.69;5016470;28;45482;-46
2023/06/02 01:44:51;;;;;;;;;18.67;14.00;;;;;17.10;53.07;101540.56;5016862;28;45372;-46
2023/06/02 01:47:17;;;;;;;;;15.00;12.00;;;;;17.06;53.35;101533.84;5016980;28;45307;-47
2023/06/02 01:49:42;;;;;;;;;17.00;16.67;;;;;17.01;53.17;101540.75;5016565;28;45468;-49
2023/06/02 01:52:08;;;;;;;;;14.33;14.33;;;;;16.87;53.23;101516.25;5015731;28;45463;-47
2023/06/02 01:54:33;;;;;;;;;26.00;14.33;;;;;16.98;53.30;101530.34;5016873;28;45388;-48
2023/06/02 01:56:58;;;;;;;;;23.67;17.67;;;;;16.95;53.45;101531.53;5017068;28;45346;-45
2023/06/02 01:59:25;;;;;;;;;15.67;15.67;;;;;16.90;53.07;101521.31;5016705;28;45326;-45
2023/06/02 02:01:51;;;;;;;;;17.67;15.00;;;;;16.91;53.61;101524.81;5016484;28;45374;-46
2023/06/02 02:04:16;;;;;;;;;18.67;15.33;;;;;16.88;53.48;101525.16;5016595;28;45402;-46
2023/06/02 02:06:45;;;;;;;;;17.00;17.00;;;;;16.86;53.86;101525.34;5016675;28;45467;-47
2023/06/02 02:09:10;;;;;;;;;19.00;15.33;;;;;16.82;53.71;101529.38;5016299;28;45443;-47
2023/06/02 02:11:35;;;;;;;;;17.00;16.33;;;;;16.77;53.69;101522.78;5016446;28;45383;-48
2023/06/02 02:14:04;;;;;;;;;25.00;17.67;;;;;16.80;53.57;101534.03;5016437;28;45330;-48
2023/06/02 02:16:30;;;;;;;;;19.67;16.33;;;;;16.80;53.62;101533.22;5016714;28;45451;-47
2023/06/02 02:18:56;;;;;;;;;20.00;17.33;;;;;16.69;53.62;101515.56;5016188;28;46257;-49
2023/06/02 02:21:21;;;;;;;;;18.33;14.00;;;;;16.78;53.62;101535.25;5016040;28;45397;-49
2023/06/02 02:23:47;;;;;;;;;18.67;17.67;;;;;16.76;53.45;101529.19;5016001;28;45422;-48
2023/06/02 02:26:12;;;;;;;;;25.33;21.00;;;;;16.77;53.45;101544.28;5016537;28;45396;-47
2023/06/02 02:28:37;;;;;;;;;23.67;18.00;;;;;16.76;53.65;101548.81;5016304;28;46115;-46
2023/06/02 02:31:04;;;;;;;;;27.33;15.67;;;;;16.73;53.44;101548.31;5014950;28;45561;-49
2023/06/02 02:33:30;;;;;;;;;21.33;16.67;;;;;16.74;53.52;101550.84;5016270;28;45248;-46
2023/06/02 02:35:55;;;;;;;;;21.67;14.00;;;;;16.69;53.49;101559.38;5016183;28;45542;-48
2023/06/02 02:38:21;;;;;;;;;24.33;18.67;;;;;16.61;53.38;101543.25;5015779;28;45961;-48
2023/06/02 02:40:47;;;;;;;;;21.67;19.00;;;;;16.61;53.58;101539.75;4998041;28;45292;-49
2023/06/02 02:43:13;;;;;;;;;28.00;13.67;;;;;16.63;53.67;101553.81;5016062;28;45530;-49
2023/06/02 02:45:38;;;;;;;;;18.00;15.00;;;;;16.61;53.53;101555.84;5016194;28;45376;-48
2023/06/02 02:48:04;;;;;;;;;15.33;15.00;;;;;16.58;53.63;101551.66;5015998;28;45490;-49
2023/06/02 02:50:30;;;;;;;;;20.33;17.33;;;;;16.55;53.17;101557.34;5015750;28;45616;-47
2023/06/02 02:52:55;;;;;;;;;23.00;16.67;;;;;16.54;53.56;101554.84;5016037;28;45394;-45
2023/06/02 02:55:21;;;;;;;;;29.67;19.00;;;;;16.50;53.56;101559.69;5015960;28;45322;-46
2023/06/02 02:57:47;;;;;;;;;18.33;16.33;;;;;16.46;53.80;101561.03;5015419;28;46126;-49
2023/06/02 03:00:13;;;;;;;;;24.33;17.33;;;;;16.44;53.52;101555.00;5015515;28;45300;-48
2023/06/02 03:02:39;;;;;;;;;19.00;17.33;;;;;16.42;53.83;101554.31;5015943;28;45473;-50
2023/06/02 03:05:06;;;;;;;;;18.67;15.67;;;;;16.34;53.65;101543.53;5015952;28;45307;-50
2023/06/02 03:07:31;;;;;;;;;14.00;10.67;;;;;16.31;53.78;101555.47;5015475;28;47294;-48
2023/06/02 03:09:57;;;;;;;;;21.67;18.00;;;;;16.33;53.48;101560.66;5015652;28;45398;-48
2023/06/02 03:12:22;;;;;;;;;25.00;18.33;;;;;16.32;54.11;101559.81;5015825;28;45415;-48
2023/06/02 03:14:47;;;;;;;;;18.67;17.67;;;;;16.31;53.73;101560.00;5015888;28;45359;-48
2023/06/02 03:17:13;;;;;;;;;22.67;16.00;;;;;16.26;53.97;101556.94;5015484;28;45299;-47
2023/06/02 03:19:39;;;;;;;;;23.33;17.33;;;;;16.26;54.12;101562.31;5015209;28;45337;-48
2023/06/02 03:22:05;;;;;;;;;20.00;18.67;;;;;16.21;53.95;101565.50;5015489;28;45438;-47
2023/06/02 03:24:30;;;;;;;;;25.00;17.00;;;;;16.11;53.89;101557.59;5014611;28;45414;-48
2023/06/02 03:26:56;;;;;;;;;25.33;18.33;;;;;16.14;54.35;101564.50;5015404;28;45366;-46
2023/06/02 03:29:21;;;;;;;;;24.00;18.00;;;;;16.11;54.19;101570.19;5014776;28;45462;-46
2023/06/02 03:31:49;;;;;;;;;20.00;14.33;;;;;16.08;54.19;101575.84;5015613;28;45539;-46
2023/06/02 03:34:14;;;;;;;;;27.33;20.00;;;;;16.07;53.96;101577.72;5015682;28;45406;-46
2023/06/02 03:36:40;;;;;;;;;27.67;20.67;;;;;16.06;53.43;101575.19;5015347;28;45467;-46
2023/06/02 03:39:07;;;;;;;;;21.67;17.33;;;;;16.04;54.58;101575.34;5015194;28;45180;-45
2023/06/02 03:41:34;;;;;;;;;24.00;20.00;;;;;16.02;54.34;101580.03;5014559;28;45380;-45
2023/06/02 03:44:01;;;;;;;;;22.33;19.67;;;;;16.01;54.16;101559.56;5018802;28;45475;-48
2023/06/02 03:46:27;;;;;;;;;24.33;20.00;;;;;15.93;54.25;101557.72;5018633;28;46312;-46
2023/06/02 03:48:52;;;;;;;;;25.67;20.67;;;;;15.97;54.53;101566.28;5018851;28;45406;-48
2023/06/02 03:51:18;;;;;;;;;22.33;19.00;;;;;15.84;54.33;101547.91;5018590;28;45492;-46
2023/06/02 03:53:43;;;;;;;;;19.00;18.00;;;;;15.92;54.42;101574.78;5018989;28;45373;-46
2023/06/02 03:56:10;;;;;;;;;24.67;19.00;;;;;15.94;54.26;101566.59;5018550;28;45409;-47
2023/06/02 03:58:36;;;;;;;;;23.00;18.67;;;;;15.95;54.39;101571.78;5018538;28;45477;-46
2023/06/02 04:01:01;;;;;;;;;18.33;18.00;;;;;15.98;54.52;101569.78;5018420;28;45383;-51
2023/06/02 04:03:28;;;;;;;;;19.67;17.00;;;;;15.98;54.42;101570.63;5018806;28;45224;-47
2023/06/02 04:05:54;;;;;;;;;20.33;19.67;;;;;16.00;53.97;101573.97;5018496;28;47047;-46
2023/06/02 04:08:20;;;;;;;;;24.67;20.67;;;;;16.01;54.28;101577.50;5017741;28;45417;-48
2023/06/02 04:10:45;;;;;;;;;25.33;23.00;;;;;16.01;53.82;101578.34;5018616;28;45350;-48
2023/06/02 04:13:10;;;;;;;;;26.00;22.00;;;;;15.99;53.72;101571.47;5018376;28;45436;-47
2023/06/02 04:15:36;;;;;;;;;21.67;21.00;;;;;15.99;54.11;101582.19;5018249;28;45442;-48
2023/06/02 04:18:02;;;;;;;;;28.33;21.00;;;;;15.97;53.77;101582.38;5018084;28;45183;-45
2023/06/02 04:20:27;;;;;;;;;24.33;22.00;;;;;15.97;53.98;101585.06;5018348;28;45333;-47
2023/06/02 04:22:53;;;;;;;;;27.67;23.67;;;;;15.97;53.79;101582.38;5000150;28;45485;-48
2023/06/02 04:25:18;;;;;;;;;33.67;24.00;;;;;15.98;53.85;101588.59;5017985;28;49337;-45
2023/06/02 04:27:43;;;;;;;;;29.00;19.33;;;;;15.94;53.70;101574.63;5017042;28;45361;-49
2023/06/02 04:30:09;;;;;;;;;25.67;21.67;;;;;15.83;54.03;101564.19;5018095;28;45698;-48
2023/06/02 04:32:34;;;;;;;;;31.00;25.00;;;;;15.87;53.80;101573.59;5018556;28;45481;-48
2023/06/02 04:35:00;;;;;;;;;22.33;19.00;;;;;15.84;53.80;101582.78;5017819;28;46116;-45
2023/06/02 04:37:26;;;;;;;;;26.33;22.33;;;;;15.86;53.90;101577.28;5018135;28;45429;-47
2023/06/02 04:39:52;;;;;;;;;27.33;21.00;;;;;15.82;53.82;101576.75;5018082;28;45446;-47
2023/06/02 04:42:17;;;;;;;;;24.67;23.00;;;;;15.76;53.79;101571.19;5017905;28;45370;-47
2023/06/02 04:44:47;;;;;;;;;25.33;19.67;;;;;15.81;53.91;101579.63;4999897;28;45445;-49
2023/06/02 04:47:12;;;;;;;;;26.00;24.33;;;;;15.81;53.58;101587.66;4999727;28;45422;-50
2023/06/02 04:49:38;;;;;;;;;31.00;25.33;;;;;15.80;53.76;101591.31;4999851;28;45368;-50
2023/06/02 04:52:07;;;;;;;;;33.33;25.33;;;;;15.81;54.11;101601.91;5017679;28;45530;-48
2023/06/02 04:54:32;;;;;;;;;27.00;24.33;;;;;15.69;54.19;101579.88;5016828;28;47068;-47
2023/06/02 04:56:57;;;;;;;;;27.33;21.67;;;;;15.75;54.15;101589.13;5017635;28;45200;-50
2023/06/02 04:59:23;;;;;;;;;27.33;20.33;;;;;15.80;54.01;101602.94;5017431;28;45422;-45
2023/06/02 05:01:48;;;;;;;;;35.67;25.33;;;;;15.77;53.64;101592.50;5016899;28;45636;-47
2023/06/02 05:04:14;;;;;;;;;27.00;24.67;;;;;15.78;53.80;101596.88;5017504;28;46272;-46
2023/06/02 05:06:39;;;;;;;;;27.00;25.67;;;;;15.81;53.74;101604.59;5017478;28;45373;-48
2023/06/02 05:09:05;;;;;;;;;28.33;21.33;;;;;15.85;53.72;101605.97;5017573;28;45406;-48
2023/06/02 05:11:30;;;;;;;;;22.67;19.67;;;;;15.90;53.61;101608.16;4999848;28;45457;-48
2023/06/02 05:13:56;;;;;;;;;30.67;22.33;;;;;15.87;53.22;101597.75;5017448;28;47297;-46
2023/06/02 05:16:23;;;;;;;;;34.00;23.67;;;;;15.93;53.13;101606.00;5017085;28;45775;-48
2023/06/02 05:18:49;;;;;;;;;29.67;21.33;;;;;15.93;52.92;101599.81;5017480;28;45430;-45
2023/06/02 05:21:14;;;;;;;;;24.67;21.67;;;;;15.93;52.92;101614.06;5017320;28;45509;-46
2023/06/02 05:23:39;;;;;;;;;26.33;19.67;;;;;15.92;52.85;101608.81;5017027;28;46235;-47
2023/06/02 05:26:05;;;;;;;;;26.00;20.33;;;;;15.93;52.78;101599.81;5017073;28;45496;-44
2023/06/02 05:28:30;;;;;;;;;27.33;22.33;;;;;15.91;53.05;101597.25;5017361;28;45346;-45
2023/06/02 05:30:56;;;;;;;;;28.67;19.33;;;;;15.93;53.12;101602.47;5016762;28;45603;-48
2023/06/02 05:33:22;;;;;;;;;24.67;21.00;;;;;15.98;52.33;101592.09;5016785;28;45885;-48
2023/06/02 05:35:47;;;;;;;;;28.67;24.67;;;;;16.03;52.90;101599.66;5016960;28;45359;-47
2023/06/02 05:38:17;;;;;;;;;24.33;17.67;;;;;16.06;52.62;101600.19;5017098;28;45385;-47
2023/06/02 05:40:42;;;;;;;;;23.33;21.67;;;;;16.13;52.61;101598.50;5017579;28;45278;-47
2023/06/02 05:43:07;;;;;;;;;32.33;20.33;;;;;16.17;52.16;101588.31;5016841;28;45436;-47
2023/06/02 05:45:33;;;;;;;;;26.00;22.00;;;;;16.25;52.13;101600.91;5016343;28;45362;-48
2023/06/02 05:47:58;;;;;;;;;30.33;19.00;;;;;16.26;51.28;101599.91;5017293;28;45400;-47
2023/06/02 05:50:23;;;;;;;;;23.33;17.00;;;;;16.27;51.75;101597.06;5017032;28;45365;-49
2023/06/02 05:52:50;;;;;;;;;27.67;22.00;;;;;16.32;51.95;101596.59;5016591;28;46276;-47
2023/06/02 05:55:16;;;;;;;;;29.00;22.67;;;;;16.20;51.55;101578.09;5016554;28;45260;-48
2023/06/02 05:57:42;;;;;;;;;23.67;21.00;;;;;16.37;51.16;101602.28;5016700;28;45429;-45
2023/06/02 06:00:08;;;;;;;;;25.33;22.33;;;;;16.41;51.26;101595.59;5016640;28;45228;-46
2023/06/02 06:02:33;;;;;;;;;27.67;22.33;;;;;16.46;51.25;101594.09;5016237;28;46859;-46
2023/06/02 06:04:58;;;;;;;;;24.67;20.33;;;;;16.52;50.87;101595.28;5016439;28;45329;-46
2023/06/02 06:07:24;;;;;;;;;25.33;20.33;;;;;16.59;50.68;101601.66;5015376;28;45232;-45
2023/06/02 06:09:49;;;;;;;;;27.33;26.00;;;;;16.57;50.23;101590.25;5017091;28;45531;-47
2023/06/02 06:12:14;;;;;;;;;26.00;23.00;;;;;16.65;50.56;101601.03;5016423;28;46285;-46
2023/06/02 06:14:40;;;;;;;;;26.67;21.33;;;;;16.64;50.24;101596.66;5016536;28;45287;-47
2023/06/02 06:17:05;;;;;;;;;29.33;24.00;;;;;16.65;50.26;101597.50;5016651;28;45413;-47
2023/06/02 06:19:31;;;;;;;;;38.00;28.00;;;;;16.70;50.37;101597.84;5016627;28;45338;-49
2023/06/02 06:21:56;;;;;;;;;35.00;26.33;;;;;16.78;50.67;101605.09;5016661;28;45969;-48
2023/06/02 06:24:21;;;;;;;;;35.67;27.67;;;;;16.85;50.45;101609.63;5016465;28;45390;-47
2023/06/02 06:26:47;;;;;;;;;29.00;23.00;;;;;16.91;50.00;101606.28;5016547;28;45514;-49
2023/06/02 06:29:12;;;;;;;;;36.00;27.67;;;;;16.98;49.71;101610.97;5016430;28;45370;-47
2023/06/02 06:31:37;;;;;;;;;34.67;30.67;;;;;16.94;49.54;101603.28;5016309;28;46864;-46
2023/06/02 06:34:04;;;;;;;;;44.00;32.33;;;;;16.89;49.54;101599.38;5015993;28;45403;-43
2023/06/02 06:36:30;;;;;;;;;36.33;29.67;;;;;16.86;49.82;101605.94;5014553;28;45541;-44
2023/06/02 06:38:55;;;;;;;;;31.00;26.00;;;;;16.87;49.64;101610.31;5016090;28;45224;-45
2023/06/02 06:41:22;;;;;;;;;28.67;24.00;;;;;16.92;49.83;101612.50;5034839;28;47405;-42
2023/06/02 06:43:48;;;;;;;;;23.00;22.33;;;;;16.90;49.50;101591.19;5014868;28;45411;-44
2023/06/02 06:46:15;;;;;;;;;33.67;27.67;;;;;17.10;49.23;101606.94;5023338;28;46330;-42
2023/06/02 06:48:40;;;;;;;;;31.67;24.00;;;;;17.26;48.99;101608.78;5017368;28;45968;-45
2023/06/02 06:51:06;;;;;;;;;41.33;28.67;;;;;17.31;48.81;101618.03;5016442;28;46260;-42
2023/06/02 06:53:31;;;;;;;;;27.67;23.00;;;;;17.26;48.98;101598.88;5026027;28;45609;-44
2023/06/02 06:55:57;;;;;;;;;33.33;26.00;;;;;17.30;48.76;101602.91;5027544;28;45488;-44
2023/06/02 06:58:22;;;;;;;;;31.33;27.00;;;;;17.26;48.73;101611.47;5022467;28;46487;-45
2023/06/02 07:00:47;;;;;;;;;34.00;29.33;;;;;17.28;48.70;101609.47;5022435;28;46111;-43
2023/06/02 07:03:13;;;;;;;;;35.00;26.67;;;;;17.83;48.11;101608.72;5019020;28;46354;-44
2023/06/02 07:05:38;;;;;;;;;35.33;28.00;;;;;18.15;47.40;101595.13;5018761;28;46351;-45
2023/06/02 07:08:04;;;;;;;;;35.33;31.00;;;;;18.12;47.26;101589.28;5021169;28;46317;-45
2023/06/02 07:10:29;;;;;;;;;35.33;28.67;;;;;18.06;47.42;101609.63;5022180;28;46494;-43
2023/06/02 07:12:54;;;;;;;;;25.67;23.67;;;;;17.87;47.40;101600.13;5012536;28;45545;-44
2023/06/02 07:15:20;;;;;;;;;27.00;22.67;;;;;17.76;47.65;101613.94;5019148;28;45507;-42
2023/06/02 07:17:46;;;;;;;;;33.33;27.00;;;;;17.78;47.70;101608.38;5028398;28;45413;-43
2023/06/02 07:20:13;;;;;;;;;36.33;32.00;;;;;17.81;47.89;101618.81;5026989;28;45594;-44
2023/06/02 07:22:39;;;;;;;;;53.00;36.00;;;;;17.83;47.71;101611.41;5025776;28;45441;-44
2023/06/02 07:25:05;;;;;;;;;26.33;25.33;;;;;17.89;47.46;101613.41;5031420;28;45519;-44
2023/06/02 07:27:32;;;;;;;;;29.33;25.00;;;;;17.99;47.37;101605.13;5029810;28;45486;-42
2023/06/02 07:29:58;;;;;;;;;26.67;22.33;;;;;18.04;47.20;101602.75;5032745;28;46439;-42
2023/06/02 07:32:24;;;;;;;;;28.00;23.33;;;;;18.09;46.94;101590.44;5020099;28;45419;-42
2023/06/02 07:34:49;;;;;;;;;32.33;25.67;;;;;18.30;46.70;101611.38;5035944;28;45465;-42
2023/06/02 07:37:15;;;;;;;;;29.33;23.67;;;;;18.53;46.43;101603.31;5031080;28;45832;-41
2023/06/02 07:39:40;;;;;;;;;26.67;20.67;;;;;18.89;45.89;101603.63;5029725;28;45399;-42
2023/06/02 07:42:06;;;;;;;;;27.67;24.00;;;;;19.13;45.38;101594.50;5029041;28;45244;-42
2023/06/02 07:44:32;;;;;;;;;29.00;26.67;;;;;19.26;44.87;101593.03;5028070;28;45500;-43
2023/06/02 07:46:57;;;;;;;;;32.33;26.33;;;;;19.32;45.20;101597.69;5036413;28;45881;-43
2023/06/02 07:49:23;;;;;;;;;22.67;19.33;;;;;19.44;44.83;101602.47;5035144;28;47346;-42
2023/06/02 07:51:48;;;;;;;;;31.00;26.33;;;;;19.75;44.20;101595.25;5028789;28;45272;-46
2023/06/02 07:54:13;;;;;;;;;24.00;22.00;;;;;19.96;43.67;101599.91;5012180;28;45441;-42
2023/06/02 07:56:39;;;;;;;;;41.67;33.00;;;;;19.94;43.20;101613.59;5036084;28;45444;-43
2023/06/02 07:59:04;;;;;;;;;36.33;27.00;;;;;20.33;42.73;101601.59;5026645;28;47017;-45
2023/06/02 08:01:30;;;;;;;;;50.00;36.67;;;;;21.47;41.27;101599.81;5026989;28;45400;-45
2023/06/02 08:03:55;;;;;;;;;17.67;12.00;;;;;23.82;38.01;101593.72;5028395;28;45854;-47
2023/06/02 08:06:20;;;;;;;;;19.67;16.00;;;;;25.68;34.62;101584.31;5026889;28;45831;-43
2023/06/02 08:08:46;;;;;;;;;19.67;17.67;;;;;27.14;31.94;101591.38;5026128;28;45984;-44
2023/06/02 08:11:12;;;;;;;;;18.50;15.00;;;;;27.95;31.95;101594.31;5025065;28;45831;-44
2023/06/02 08:13:37;;;;;;;;;21.00;18.50;;;;;28.84;30.18;101583.69;5033108;28;45565;-43
2023/06/02 08:16:03;;;;;;;;;18.00;14.75;;;;;29.64;28.71;101577.00;5025459;28;45317;-42
2023/06/02 08:18:28;;;;;;;;;18.25;14.75;;;;;30.30;28.93;101572.34;5030524;28;46075;-43
2023/06/02 08:20:53;;;;;;;;;17.25;15.75;;;;;30.84;26.92;101568.75;5032788;28;45955;-42
2023/06/02 08:23:19;;;;;;;;;16.25;13.25;;;;;31.51;25.79;101570.06;5031699;28;46042;-42
2023/06/02 08:25:44;;;;;;;;;14.00;13.00;;;;;31.97;26.65;101570.28;5034375;28;45473;-43
2023/06/02 08:28:11;;;;;;;;;14.50;11.75;;;;;32.17;25.82;101580.53;5030335;28;45528;-42
2023/06/02 08:30:37;;;;;;;;;13.20;12.00;;;;;32.52;24.51;101575.13;5024375;28;45438;-42
2023/06/02 08:33:05;;;;;;;;;15.25;11.00;;;;;32.74;24.09;101563.00;5022092;28;45770;-46
2023/06/02 08:35:32;;;;;;;;;13.20;12.80;;;;;33.06;23.38;101567.44;5031885;28;45612;-44
2023/06/02 08:38:02;;;;;;;;;16.00;14.80;;;;;33.36;23.68;101572.88;5016397;28;45519;-43
2023/06/02 08:40:35;;;;;;;;;13.20;10.40;;;;;33.66;23.09;101566.47;5025815;28;45490;-43
2023/06/02 08:43:03;;;;;;;;;11.00;11.00;;;;;33.95;23.64;101566.63;5021961;28;45484;-42
2023/06/02 08:45:28;;;;;;;;;12.00;10.00;;;;;34.21;22.26;101553.50;5029344;28;45458;-43
2023/06/02 08:47:54;;;;;;;;;12.25;9.75;;;;;34.12;22.61;101515.75;5028035;28;45429;-43
2023/06/02 08:50:26;;;;;;;;;11.80;9.20;;;;;34.48;22.55;101552.28;5004207;28;45507;-42
2023/06/02 08:52:54;;;;;;;;;11.80;11.80;;;;;34.64;22.98;101564.88;5022060;28;45521;-44
2023/06/02 08:55:21;;;;;;;;;10.60;10.60;;;;;34.67;21.75;101564.25;5029681;28;45695;-45
2023/06/02 08:57:46;;;;;;;;;19.60;16.20;;;;;34.87;21.78;101560.50;5019547;28;46093;-42
2023/06/02 09:00:12;;;;;;;;;15.00;13.00;;;;;34.94;21.48;101554.66;5019456;28;45381;-43
2023/06/02 09:02:39;;;;;;;;;12.20;12.20;;;;;35.06;21.73;101557.03;5022203;28;45328;-43
2023/06/02 09:05:06;;;;;;;;;15.60;12.80;;;;;35.15;21.11;101552.53;5022100;28;45534;-41
2023/06/02 09:07:32;;;;;;;;;13.40;11.00;;;;;35.41;21.96;101548.38;5023904;28;46363;-45
2023/06/02 09:09:57;;;;;;;;;12.50;11.50;;;;;35.53;20.74;101559.06;5022757;28;45859;-46
2023/06/02 09:12:23;;;;;;;;;16.25;13.50;;;;;35.52;20.82;101553.78;5020808;28;45381;-42
2023/06/02 09:15:07;;;;;;;;;14.75;10.75;;;;;35.58;20.68;101558.16;5026821;28;46592;-43
2023/06/02 09:17:33;;;;;;;;;14.80;11.60;;;;;35.76;20.27;101559.31;5009186;28;45388;-43
2023/06/02 09:20:10;;;;;;;;;13.50;11.75;;;;;35.78;20.18;101546.84;5024103;28;45424;-43
2023/06/02 09:22:55;;;;;;;;;15.60;13.00;;;;;35.88;20.63;101548.63;5020727;28;45416;-43
2023/06/02 09:25:26;;;;;;;;;12.40;10.40;;;;;35.92;20.64;101558.81;5023431;28;45451;-44
2023/06/02 09:27:53;;;;;;;;;17.40;12.40;;;;;35.94;20.26;101559.31;5030481;28;45475;-44
2023/06/02 09:30:20;;;;;;;;;18.40;13.60;;;;;35.82;20.25;101563.66;5027087;28;45476;-43
2023/06/02 09:32:59;;;;;;;;;13.60;11.80;;;;;35.65;20.84;101553.06;5026084;28;45518;-46
2023/06/02 09:35:50;;;;;;;;;18.00;13.40;;;;;35.60;20.69;101545.66;5022124;28;45895;-45
2023/06/02 09:38:16;;;;;;;;;15.80;13.20;;;;;35.36;20.50;101548.44;5020263;28;47338;-43
2023/06/02 09:40:43;;;;;;;;;12.40;12.00;;;;;35.15;20.47;101553.38;5026077;28;45411;-44
2023/06/02 09:43:11;;;;;;;;;14.20;12.40;;;;;35.02;20.93;101556.81;5024886;28;45498;-43
2023/06/02 09:45:49;;;;;;;;;14.60;10.60;;;;;34.77;21.88;101557.03;5030383;28;45599;-43
2023/06/02 09:48:22;;;;;;;;;14.20;14.00;;;;;34.50;21.75;101548.09;5018510;28;46223;-44
2023/06/02 09:50:48;;;;;;;;;12.80;11.60;;;;;34.23;21.65;101547.72;5025629;28;45574;-46
2023/06/02 09:53:17;;;;;;;;;13.60;12.20;;;;;34.07;21.56;101549.75;5018248;28;45398;-44
2023/06/02 09:55:44;;;;;;;;;15.60;12.00;;;;;33.88;22.26;101549.56;5024507;28;45703;-44
2023/06/02 09:58:10;;;;;;;;;12.40;10.60;;;;;33.59;22.52;101535.63;5028243;28;45958;-47
2023/06/02 10:00:35;;;;;;;;;12.75;10.25;;;;;33.57;22.78;101548.84;5017978;28;45508;-46
2023/06/02 10:03:02;;;;;;;;;10.25;10.25;;;;;33.28;22.03;101554.97;5027580;28;45407;-44
2023/06/02 10:05:29;;;;;;;;;12.80;11.00;;;;;33.12;23.00;101555.28;5025293;28;45658;-47
2023/06/02 10:08:09;;;;;;;;;14.00;14.00;;;;;33.01;23.06;101552.56;5031798;28;46279;-45
2023/06/02 10:10:53;;;;;;;;;15.20;12.80;;;;;32.88;23.71;101555.84;5025320;28;45480;-43
2023/06/02 10:13:21;;;;;;;;;15.80;13.20;;;;;32.62;23.15;101545.94;5018022;28;45543;-44
2023/06/02 10:16:16;;;;;;;;;14.40;12.40;;;;;32.36;23.46;101545.88;5020719;28;45484;-43
2023/06/02 10:19:14;;;;;;;;;11.00;11.00;;;;;32.14;23.64;101545.28;5036394;28;46075;-46
2023/06/02 10:22:13;;;;;;;;;12.20;11.00;;;;;31.91;23.69;101543.84;4994370;28;45488;-44
2023/06/02 10:24:58;;;;;;;;;13.80;13.00;;;;;31.64;24.25;101539.31;4994401;28;45417;-41
2023/06/02 10:27:29;;;;;;;;;11.20;11.20;;;;;31.46;24.37;101542.53;4994616;28;45541;-43
2023/06/02 10:29:56;;;;;;;;;15.80;13.80;;;;;31.29;24.84;101532.53;4993857;28;47247;-45
2023/06/02 10:32:26;;;;;;;;;18.00;13.20;;;;;31.02;24.70;101540.88;4994190;28;45398;-41
2023/06/02 10:34:52;;;;;;;;;14.80;13.60;;;;;30.85;25.08;101529.22;4994026;28;45527;-41
2023/06/02 10:37:20;;;;;;;;;17.00;14.60;;;;;30.45;25.18;101538.72;4994474;28;45503;-44
2023/06/02 10:39:47;;;;;;;;;13.60;11.80;;;;;30.01;25.83;101522.34;4993602;28;46632;-45
2023/06/02 10:42:14;;;;;;;;;17.00;15.40;;;;;30.00;25.50;101550.88;4994267;28;45436;-46
2023/06/02 10:44:40;;;;;;;;;15.60;14.60;;;;;29.95;25.73;101544.47;4988716;28;45394;-44
2023/06/02 10:47:17;;;;;;;;;17.00;10.25;;;;;29.78;26.08;101536.31;4992756;28;45602;-45
2023/06/02 10:49:53;;;;;;;;;13.80;10.80;;;;;29.61;26.71;101532.81;4993781;28;46170;-43
2023/06/02 10:52:18;;;;;;;;;15.00;14.00;;;;;29.51;26.07;101538.97;4992789;28;45284;-43
2023/06/02 10:54:43;;;;;;;;;14.75;13.75;;;;;29.36;26.84;101539.56;4993749;28;45495;-43
2023/06/02 10:57:09;;;;;;;;;14.50;12.50;;;;;29.07;26.90;101533.41;4993944;28;45466;-45
2023/06/02 10:59:36;;;;;;;;;11.25;11.25;;;;;28.76;27.32;101540.28;5029943;28;45276;-47
2023/06/02 11:02:02;;;;;;;;;15.40;13.20;;;;;28.30;27.50;101539.44;5034827;28;45429;-43
2023/06/02 11:04:36;;;;;;;;;16.40;14.20;;;;;27.82;28.28;101537.97;5035182;28;45376;-42
2023/06/02 11:07:26;;;;;;;;;13.80;12.80;;;;;27.40;28.95;101527.22;5035451;28;45499;-46
2023/06/02 11:10:00;;;;;;;;;13.40;11.80;;;;;27.05;29.52;101540.84;5034843;28;45417;-43